Time;durP1;ratioP1;P1;durP2;ratioP2;P2;SDS_P1;SDS_P2;PMS_P1;PMS_P2;Temp;Humidity;BMP_temperature;BMP_pressure;BME280_temperature;BME280_humidity;BME280_pressure;Samples;Min_cycle;Max_cycle;Signal;HPM_P1;HPM_P2
2023/04/04 00:01:09;;;;;;;;;;;;;;;-3.28;74.02;103349.34;5018490;28;20046;-73
2023/04/04 00:03:34;;;;;;;;;;;;;;;-3.35;74.00;103342.91;5000415;28;19953;-74
2023/04/04 00:06:00;;;;;;;;;;;;;;;-3.33;74.88;103331.34;5001933;28;19940;-73
2023/04/04 00:08:25;;;;;;;;;;;;;;;-3.20;75.60;103338.28;5002131;28;20019;-73
2023/04/04 00:10:56;;;;;;;;;;;;;;;-3.09;75.13;103336.53;4982785;28;20024;-72
2023/04/04 00:13:21;;;;;;;;;;;;;;;-3.06;75.15;103323.19;4986517;28;19944;-73
2023/04/04 00:15:47;;;;;;;;;;;;;;;-3.04;74.71;103325.72;5004680;28;19951;-71
2023/04/04 00:18:15;;;;;;;;;;;;;;;-3.15;73.93;103326.50;4986644;28;19989;-75
2023/04/04 00:20:40;;;;;;;;;;;;;;;-3.03;73.88;103332.63;4972723;28;19963;-76
2023/04/04 00:23:09;;;;;;;;;;;;;;;-3.07;74.42;103326.75;4987006;28;19948;-74
2023/04/04 00:25:36;;;;;;;;;;;;;;;-2.97;75.17;103315.59;5004625;28;19939;-74
2023/04/04 00:28:02;;;;;;;;;;;;;;;-2.88;74.67;103310.47;4979794;28;19989;-73
2023/04/04 00:30:31;;;;;;;;;;;;;;;-2.81;72.95;103306.41;4978399;28;19954;-74
2023/04/04 00:32:57;;;;;;;;;;;;;;;-2.85;72.93;103317.25;5000425;28;19948;-76
2023/04/04 00:35:22;;;;;;;;;;;;;;;-2.97;73.96;103315.59;4969086;28;20044;-75
2023/04/04 00:37:48;;;;;;;;;;;;;;;-3.14;74.05;103304.59;4983605;28;19934;-74
2023/04/04 00:40:14;;;;;;;;;;;;;;;-3.15;74.92;103313.41;5002355;28;19961;-73
2023/04/04 00:42:40;;;;;;;;;;;;;;;-3.12;75.51;103305.28;5016184;28;19956;-73
2023/04/04 00:45:06;;;;;;;;;;;;;;;-3.11;75.86;103311.41;5001953;28;19940;-72
2023/04/04 00:47:32;;;;;;;;;;;;;;;-3.07;76.44;103311.03;4990247;28;20400;-73
2023/04/04 00:49:58;;;;;;;;;;;;;;;-3.08;76.03;103298.88;4984539;28;19941;-72
2023/04/04 00:52:24;;;;;;;;;;;;;;;-3.15;76.72;103308.16;5013736;28;19940;-73
2023/04/04 00:54:50;;;;;;;;;;;;;;;-3.31;76.19;103310.28;5000775;28;19940;-75
2023/04/04 00:57:16;;;;;;;;;;;;;;;-3.33;76.18;103312.16;5007009;28;19964;-72
2023/04/04 00:59:42;;;;;;;;;;;;;;;-3.26;76.80;103302.88;5004111;28;20071;-73
2023/04/04 01:02:07;;;;;;;;;;;;;;;-3.21;76.86;103298.13;4977791;28;20447;-74
2023/04/04 01:04:33;;;;;;;;;;;;;;;-3.17;77.49;103304.84;5015292;28;19950;-73
2023/04/04 01:06:59;;;;;;;;;;;;;;;-3.20;77.35;103306.84;5002223;28;19922;-74
2023/04/04 01:09:26;;;;;;;;;;;;;;;-3.21;77.09;103295.53;4999271;28;20934;-76
2023/04/04 01:11:52;;;;;;;;;;;;;;;-3.14;76.90;103296.72;4978823;28;20026;-75
2023/04/04 01:14:18;;;;;;;;;;;;;;;-3.25;77.09;103301.09;4986284;28;19948;-73
2023/04/04 01:16:45;;;;;;;;;;;;;;;-3.38;77.11;103295.97;5001780;28;20349;-75
2023/04/04 01:19:16;;;;;;;;;;;;;;;-3.42;77.45;103294.53;4999186;28;19962;-73
2023/04/04 01:21:41;;;;;;;;;;;;;;;-3.45;77.55;103292.16;4987698;28;20492;-72
2023/04/04 01:24:07;;;;;;;;;;;;;;;-3.49;77.69;103302.00;5003203;28;19930;-74
2023/04/04 01:26:53;;;;;;;;;;;;;;;-3.38;78.42;103290.72;4987485;28;19951;-72
2023/04/04 01:29:19;;;;;;;;;;;;;;;-3.48;77.65;103287.13;5011908;28;19940;-74
2023/04/04 01:31:48;;;;;;;;;;;;;;;-3.50;77.66;103282.00;4985290;28;19925;-73
2023/04/04 01:34:30;;;;;;;;;;;;;;;-3.53;77.66;103282.22;4982774;28;19981;-75
2023/04/04 01:37:06;;;;;;;;;;;;;;;-3.53;77.80;103270.91;5012997;28;19944;-75
2023/04/04 01:39:41;;;;;;;;;;;;;;;-3.50;78.14;103268.06;5003583;28;19966;-74
2023/04/04 01:42:08;;;;;;;;;;;;;;;-3.47;78.36;103275.69;5010470;28;19946;-73
2023/04/04 01:44:34;;;;;;;;;;;;;;;-3.31;78.17;103268.34;5008213;28;20218;-75
2023/04/04 01:47:02;;;;;;;;;;;;;;;-3.32;78.59;103257.03;5016843;28;19935;-73
2023/04/04 01:49:28;;;;;;;;;;;;;;;-3.33;78.80;103260.59;4998476;28;19980;-74
2023/04/04 01:51:55;;;;;;;;;;;;;;;-3.37;78.16;103266.19;4969213;28;19972;-73
2023/04/04 01:54:21;;;;;;;;;;;;;;;-3.39;78.35;103257.59;4979096;28;19981;-75
2023/04/04 01:56:46;;;;;;;;;;;;;;;-3.49;78.23;103261.88;5001295;28;19953;-73
2023/04/04 01:59:12;;;;;;;;;;;;;;;-3.45;78.32;103264.16;5013171;28;19955;-73
2023/04/04 02:01:40;;;;;;;;;;;;;;;-3.36;78.79;103255.59;4986261;28;19961;-75
2023/04/04 02:04:07;;;;;;;;;;;;;;;-3.31;78.68;103245.59;5003370;28;21065;-73
2023/04/04 02:06:33;;;;;;;;;;;;;;;-3.31;78.92;103256.09;5016843;28;19996;-72
2023/04/04 02:08:59;;;;;;;;;;;;;;;-3.24;78.89;103245.13;5021331;28;19939;-73
2023/04/04 02:11:25;;;;;;;;;;;;;;;-3.17;78.81;103246.34;4985195;28;19992;-74
2023/04/04 02:13:51;;;;;;;;;;;;;;;-3.23;78.66;103245.00;4989522;28;19944;-71
2023/04/04 02:16:18;;;;;;;;;;;;;;;-3.28;78.57;103244.53;5006133;28;19939;-73
2023/04/04 02:18:43;;;;;;;;;;;;;;;-3.32;78.25;103238.69;4970211;28;19939;-75
2023/04/04 02:21:09;;;;;;;;;;;;;;;-3.30;77.91;103243.81;4975766;28;19954;-72
2023/04/04 02:23:35;;;;;;;;;;;;;;;-3.27;78.00;103246.19;4985695;28;20411;-75
2023/04/04 02:26:01;;;;;;;;;;;;;;;-3.38;78.04;103240.94;4990069;28;20484;-72
2023/04/04 02:28:27;;;;;;;;;;;;;;;-3.43;78.52;103250.94;5001610;28;19972;-73
2023/04/04 02:30:52;;;;;;;;;;;;;;;-3.27;79.62;103240.94;5013087;28;19918;-75
2023/04/04 02:33:18;;;;;;;;;;;;;;;-3.43;78.96;103240.47;4985534;28;19965;-73
2023/04/04 02:35:44;;;;;;;;;;;;;;;-3.40;79.64;103240.22;5005485;28;19942;-76
2023/04/04 02:38:13;;;;;;;;;;;;;;;-3.22;78.38;103238.81;4973686;28;19931;-73
2023/04/04 02:40:44;;;;;;;;;;;;;;;-3.39;78.95;103232.22;5017523;28;19968;-72
2023/04/04 02:43:09;;;;;;;;;;;;;;;-3.50;79.45;103240.09;5017246;28;20375;-74
2023/04/04 02:45:36;;;;;;;;;;;;;;;-3.57;79.52;103244.94;4975586;28;19975;-74
2023/04/04 02:48:10;;;;;;;;;;;;;;;-3.65;79.55;103243.88;4998373;28;19933;-71
2023/04/04 02:50:42;;;;;;;;;;;;;;;-3.65;79.98;103239.47;4983804;28;19989;-73
2023/04/04 02:53:11;;;;;;;;;;;;;;;-3.61;79.67;103238.25;4971589;28;19932;-72
2023/04/04 02:55:36;;;;;;;;;;;;;;;-3.62;80.15;103244.44;4986714;28;19945;-73
2023/04/04 02:58:02;;;;;;;;;;;;;;;-3.50;79.76;103236.63;4991624;28;20403;-73
2023/04/04 03:00:28;;;;;;;;;;;;;;;-3.59;80.58;103239.00;5003671;28;19961;-72
2023/04/04 03:02:54;;;;;;;;;;;;;;;-3.60;80.58;103239.94;4969647;28;19955;-73
2023/04/04 03:05:23;;;;;;;;;;;;;;;-3.47;80.41;103236.38;5003542;28;19977;-73
2023/04/04 03:07:52;;;;;;;;;;;;;;;-3.39;79.93;103236.63;4983459;28;19942;-74
2023/04/04 03:10:17;;;;;;;;;;;;;;;-3.47;80.53;103244.25;4966966;28;19986;-72
2023/04/04 03:12:44;;;;;;;;;;;;;;;-3.48;80.37;103234.72;5002610;28;20407;-72
2023/04/04 03:15:10;;;;;;;;;;;;;;;-3.45;80.51;103237.13;4997343;28;19941;-72
2023/04/04 03:17:36;;;;;;;;;;;;;;;-3.50;80.60;103241.88;5005692;28;19937;-75
2023/04/04 03:20:04;;;;;;;;;;;;;;;-3.33;79.71;103241.41;4998632;28;19964;-72
2023/04/04 03:22:30;;;;;;;;;;;;;;;-3.29;79.21;103235.00;5020259;28;20458;-72
2023/04/04 03:24:59;;;;;;;;;;;;;;;-3.30;79.66;103234.16;4992064;28;20299;-71
2023/04/04 03:27:24;;;;;;;;;;;;;;;-3.26;79.30;103240.00;4981982;28;19963;-71
2023/04/04 03:29:50;;;;;;;;;;;;;;;-3.32;79.54;103238.69;4999385;28;19993;-71
2023/04/04 03:32:17;;;;;;;;;;;;;;;-3.28;80.05;103239.28;4987493;28;19948;-72
2023/04/04 03:34:43;;;;;;;;;;;;;;;-3.25;79.84;103233.81;4995206;28;20000;-74
2023/04/04 03:37:09;;;;;;;;;;;;;;;-3.13;79.34;103232.84;5004107;28;19947;-74
2023/04/04 03:39:34;;;;;;;;;;;;;;;-3.05;78.78;103233.13;5020767;28;19960;-72
2023/04/04 03:42:02;;;;;;;;;;;;;;;-2.98;78.36;103230.84;5003045;28;19999;-73
2023/04/04 03:44:27;;;;;;;;;;;;;;;-2.98;78.49;103227.38;5003812;28;20004;-73
2023/04/04 03:46:54;;;;;;;;;;;;;;;-3.12;79.25;103228.44;4987295;28;19993;-73
2023/04/04 03:49:21;;;;;;;;;;;;;;;-3.33;79.52;103234.38;5001377;28;19930;-74
2023/04/04 03:51:47;;;;;;;;;;;;;;;-3.33;80.07;103236.16;4988263;28;19962;-71
2023/04/04 03:54:13;;;;;;;;;;;;;;;-3.27;80.03;103230.47;5004783;28;19932;-73
2023/04/04 03:56:38;;;;;;;;;;;;;;;-3.26;80.54;103226.88;5008572;28;19935;-71
2023/04/04 03:59:05;;;;;;;;;;;;;;;-3.28;80.97;103227.97;5004896;28;20431;-72
2023/04/04 04:01:33;;;;;;;;;;;;;;;-3.33;80.66;103223.06;4999197;28;19952;-74
2023/04/04 04:04:00;;;;;;;;;;;;;;;-3.40;80.74;103225.31;4982499;28;19942;-72
2023/04/04 04:06:27;;;;;;;;;;;;;;;-3.46;80.86;103219.72;5005146;28;19933;-74
2023/04/04 04:08:55;;;;;;;;;;;;;;;-3.49;80.76;103209.47;4972417;28;19934;-73
2023/04/04 04:11:21;;;;;;;;;;;;;;;-3.39;80.94;103211.25;5003285;28;19977;-73
2023/04/04 04:13:46;;;;;;;;;;;;;;;-3.37;81.49;103213.78;5022285;28;19972;-72
2023/04/04 04:16:11;;;;;;;;;;;;;;;-3.35;81.61;103211.88;5003432;28;19930;-74
2023/04/04 04:18:38;;;;;;;;;;;;;;;-3.42;81.23;103210.69;5016916;28;19958;-74
2023/04/04 04:21:08;;;;;;;;;;;;;;;-3.47;81.21;103203.16;4985094;28;19969;-73
2023/04/04 04:23:34;;;;;;;;;;;;;;;-3.51;81.45;103212.22;5020078;28;19944;-74
2023/04/04 04:26:00;;;;;;;;;;;;;;;-3.52;81.32;103204.47;5020555;28;19934;-72
2023/04/04 04:28:27;;;;;;;;;;;;;;;-3.44;81.17;103213.44;5004840;28;20024;-71
2023/04/04 04:30:52;;;;;;;;;;;;;;;-3.39;81.31;103216.50;4981121;28;19955;-71
2023/04/04 04:33:28;;;;;;;;;;;;;;;-3.39;81.08;103221.75;4988501;28;20618;-73
2023/04/04 04:35:58;;;;;;;;;;;;;;;-3.26;81.36;103220.81;4992832;28;19942;-73
2023/04/04 04:38:24;;;;;;;;;;;;;;;-3.31;81.10;103223.81;4980997;28;20023;-74
2023/04/04 04:40:50;;;;;;;;;;;;;;;-3.29;81.04;103224.50;4988236;28;20079;-72
2023/04/04 04:43:25;;;;;;;;;;;;;;;-3.26;80.73;103226.88;5010227;28;19935;-73
2023/04/04 04:45:50;;;;;;;;;;;;;;;-3.22;81.08;103223.09;5003293;28;20391;-76
2023/04/04 04:48:16;;;;;;;;;;;;;;;-3.23;81.13;103215.34;4980012;28;20372;-71
2023/04/04 04:50:46;;;;;;;;;;;;;;;-3.18;81.14;103214.06;4967020;28;19948;-72
2023/04/04 04:53:15;;;;;;;;;;;;;;;-3.17;81.21;103215.72;5021417;28;19933;-73
2023/04/04 04:55:45;;;;;;;;;;;;;;;-3.18;81.29;103211.44;5007663;28;19936;-70
2023/04/04 04:58:11;;;;;;;;;;;;;;;-3.14;81.12;103210.22;5002455;28;19937;-71
2023/04/04 05:00:39;;;;;;;;;;;;;;;-3.05;80.76;103220.00;4985205;28;20014;-74
2023/04/04 05:03:06;;;;;;;;;;;;;;;-3.19;81.02;103220.22;5003999;28;19984;-74
2023/04/04 05:05:50;;;;;;;;;;;;;;;-3.24;80.85;103214.53;5004658;28;19999;-74
2023/04/04 05:08:19;;;;;;;;;;;;;;;-3.25;80.88;103217.22;4972302;28;20410;-75
2023/04/04 05:11:00;;;;;;;;;;;;;;;-3.27;80.70;103225.22;4990674;28;19954;-73
2023/04/04 05:13:28;;;;;;;;;;;;;;;-3.27;80.51;103227.84;5008995;28;19943;-71
2023/04/04 05:16:13;;;;;;;;;;;;;;;-3.28;80.86;103226.19;4987610;28;20366;-75
2023/04/04 05:18:43;;;;;;;;;;;;;;;-3.19;80.76;103224.63;4974126;28;19983;-73
2023/04/04 05:21:10;;;;;;;;;;;;;;;-3.14;81.21;103225.94;5017520;28;20373;-73
2023/04/04 05:23:36;;;;;;;;;;;;;;;-3.16;81.08;103221.78;5003772;28;19945;-72
2023/04/04 05:26:01;;;;;;;;;;;;;;;-3.17;81.00;103226.19;4969194;28;19937;-73
2023/04/04 05:28:31;;;;;;;;;;;;;;;-3.04;81.24;103221.66;4995397;28;19962;-73
2023/04/04 05:31:01;;;;;;;;;;;;;;;-2.95;81.34;103224.53;5013880;28;19989;-73
2023/04/04 05:33:29;;;;;;;;;;;;;;;-2.96;81.33;103230.72;5017869;28;20013;-73
2023/04/04 05:36:03;;;;;;;;;;;;;;;-2.88;81.15;103225.72;5004665;28;19932;-73
2023/04/04 05:38:30;;;;;;;;;;;;;;;-2.79;81.04;103225.81;4968357;28;19934;-72
2023/04/04 05:40:55;;;;;;;;;;;;;;;-2.65;80.58;103221.25;4989590;28;19963;-74
2023/04/04 05:43:22;;;;;;;;;;;;;;;-2.55;80.14;103223.03;4984217;28;19958;-73
2023/04/04 05:46:05;;;;;;;;;;;;;;;-2.34;79.48;103225.75;5002230;28;20423;-74
2023/04/04 05:48:38;;;;;;;;;;;;;;;-2.15;78.25;103225.09;4986205;28;20015;-72
2023/04/04 05:51:03;;;;;;;;;;;;;;;-1.94;77.36;103228.56;4985340;28;19996;-74
2023/04/04 05:53:44;;;;;;;;;;;;;;;-1.79;76.80;103226.47;4982055;28;20016;-74
2023/04/04 05:56:10;;;;;;;;;;;;;;;-1.74;76.76;103223.47;4970863;28;19943;-73
2023/04/04 05:58:36;;;;;;;;;;;;;;;-1.69;76.39;103223.94;4986556;28;19938;-72
2023/04/04 06:01:05;;;;;;;;;;;;;;;-1.63;76.09;103226.00;5013515;28;19962;-74
2023/04/04 06:03:31;;;;;;;;;;;;;;;-1.41;73.94;103219.81;4997794;28;19975;-72
2023/04/04 06:05:58;;;;;;;;;;;;;;;-1.24;72.70;103215.72;4995669;28;20046;-74
2023/04/04 06:08:23;;;;;;;;;;;;;;;-1.08;71.99;103213.47;5004774;28;20031;-73
2023/04/04 06:10:49;;;;;;;;;;;;;;;-0.94;71.40;103207.84;4994560;28;20059;-73
2023/04/04 06:13:15;;;;;;;;;;;;;;;-0.78;71.15;103220.50;4983204;28;19943;-72
2023/04/04 06:15:46;;;;;;;;;;;;;;;-0.72;70.77;103219.13;5002767;28;20440;-73
2023/04/04 06:18:11;;;;;;;;;;;;;;;-0.57;70.75;103215.97;5001058;28;19938;-74
2023/04/04 06:20:37;;;;;;;;;;;;;;;-0.41;71.38;103225.13;5016278;28;20343;-72
2023/04/04 06:23:03;;;;;;;;;;;;;;;-0.28;69.32;103221.25;4987629;28;20761;-73
2023/04/04 06:25:31;;;;;;;;;;;;;;;-0.09;68.95;103214.34;5001745;28;19934;-71
2023/04/04 06:27:58;;;;;;;;;;;;;;;0.03;69.41;103228.22;4971685;28;20052;-72
2023/04/04 06:30:24;;;;;;;;;;;;;;;0.15;68.54;103227.94;4970201;28;19931;-74
2023/04/04 06:32:51;;;;;;;;;;;;;;;0.24;68.27;103232.38;4989433;28;19999;-73
2023/04/04 06:35:23;;;;;;;;;;;;;;;0.31;68.04;103221.25;4986914;28;19964;-74
2023/04/04 06:37:56;;;;;;;;;;;;;;;0.43;68.43;103220.13;4964899;28;20065;-73
2023/04/04 06:40:23;;;;;;;;;;;;;;;0.59;67.62;103212.47;4984831;28;20025;-74
2023/04/04 06:42:50;;;;;;;;;;;;;;;0.65;66.81;103217.16;4969555;28;19940;-74
2023/04/04 06:45:18;;;;;;;;;;;;;;;0.78;66.15;103222.94;5003970;28;19938;-74
2023/04/04 06:47:43;;;;;;;;;;;;;;;0.85;66.22;103222.38;4988793;28;20000;-73
2023/04/04 06:50:10;;;;;;;;;;;;;;;0.93;66.47;103219.84;5007833;28;19936;-74
2023/04/04 06:52:35;;;;;;;;;;;;;;;1.19;66.07;103212.91;4991939;28;20478;-73
2023/04/04 06:55:03;;;;;;;;;;;;;;;1.19;66.22;103218.19;5003433;28;20625;-75
2023/04/04 06:57:28;;;;;;;;;;;;;;;1.12;66.23;103221.56;5003557;28;19938;-73
2023/04/04 06:59:54;;;;;;;;;;;;;;;1.18;66.14;103210.44;4999141;28;19965;-73
2023/04/04 07:02:20;;;;;;;;;;;;;;;1.23;66.29;103213.47;4978237;28;19956;-73
2023/04/04 07:04:45;;;;;;;;;;;;;;;1.34;65.94;103224.63;4994954;28;19935;-75
2023/04/04 07:07:11;;;;;;;;;;;;;;;1.30;66.06;103212.72;4984182;28;19939;-76
2023/04/04 07:09:36;;;;;;;;;;;;;;;1.31;66.86;103219.66;5004652;28;19961;-73
2023/04/04 07:12:02;;;;;;;;;;;;;;;1.50;65.82;103215.25;4999440;28;20008;-73
2023/04/04 07:14:27;;;;;;;;;;;;;;;1.47;65.95;103212.91;5024113;28;19962;-72
2023/04/04 07:16:53;;;;;;;;;;;;;;;1.55;66.01;103218.25;4998251;28;20490;-74
2023/04/04 07:19:19;;;;;;;;;;;;;;;1.69;65.93;103215.09;5006476;28;19964;-72
2023/04/04 07:21:45;;;;;;;;;;;;;;;1.86;64.64;103206.34;5006819;28;19953;-73
2023/04/04 07:24:10;;;;;;;;;;;;;;;2.07;64.33;103208.69;4986467;28;19944;-74
2023/04/04 07:26:36;;;;;;;;;;;;;;;2.20;63.17;103208.28;5023841;28;20727;-72
2023/04/04 07:29:02;;;;;;;;;;;;;;;2.26;63.07;103212.97;4970952;28;19939;-74
2023/04/04 07:31:27;;;;;;;;;;;;;;;2.38;62.53;103206.44;5006946;28;19956;-72
2023/04/04 07:33:53;;;;;;;;;;;;;;;2.31;61.57;103200.13;4985881;28;19937;-72
2023/04/04 07:36:18;;;;;;;;;;;;;;;2.60;61.61;103204.25;5005062;28;20035;-72
2023/04/04 07:38:44;;;;;;;;;;;;;;;2.70;61.35;103205.78;4986506;28;20402;-72
2023/04/04 07:41:12;;;;;;;;;;;;;;;2.51;61.03;103198.09;5014862;28;19956;-73
2023/04/04 07:43:37;;;;;;;;;;;;;;;2.60;61.21;103197.16;4976329;28;19935;-73
2023/04/04 07:46:03;;;;;;;;;;;;;;;2.41;61.30;103205.28;5007610;28;20316;-70
2023/04/04 07:48:28;;;;;;;;;;;;;;;2.49;61.04;103212.44;4991223;28;19947;-76
2023/04/04 07:50:54;;;;;;;;;;;;;;;2.46;61.42;103203.03;5004676;28;19979;-73
2023/04/04 07:53:20;;;;;;;;;;;;;;;2.32;61.69;103211.53;5000156;28;20031;-74
2023/04/04 07:55:45;;;;;;;;;;;;;;;2.34;60.37;103199.78;5009352;28;19936;-70
2023/04/04 07:58:11;;;;;;;;;;;;;;;2.37;61.09;103202.16;4991846;28;19944;-72
2023/04/04 08:00:37;;;;;;;;;;;;;;;2.49;61.76;103191.28;5006441;28;19958;-73
2023/04/04 08:03:02;;;;;;;;;;;;;;;2.45;61.33;103191.63;5007766;28;19936;-75
2023/04/04 08:05:28;;;;;;;;;;;;;;;2.58;60.69;103195.66;4993829;28;19987;-73
2023/04/04 08:07:54;;;;;;;;;;;;;;;2.62;61.07;103187.22;5007665;28;20294;-71
2023/04/04 08:10:22;;;;;;;;;;;;;;;3.09;59.03;103194.72;5023321;28;20441;-73
2023/04/04 08:12:48;;;;;;;;;;;;;;;3.06;59.67;103195.06;4995831;28;19972;-75
2023/04/04 08:15:14;;;;;;;;;;;;;;;3.29;58.74;103190.00;4987654;28;20318;-73
2023/04/04 08:17:39;;;;;;;;;;;;;;;3.50;59.17;103187.72;5008315;28;19935;-72
2023/04/04 08:20:05;;;;;;;;;;;;;;;3.60;58.70;103181.47;5016817;28;19962;-75
2023/04/04 08:22:32;;;;;;;;;;;;;;;3.73;57.08;103189.78;4983310;28;19997;-74
2023/04/04 08:24:57;;;;;;;;;;;;;;;3.49;55.82;103186.06;5007156;28;19950;-74
2023/04/04 08:27:23;;;;;;;;;;;;;;;3.37;54.60;103195.31;4985787;28;19922;-74
2023/04/04 08:29:49;;;;;;;;;;;;;;;3.24;55.32;103189.66;4998987;28;19947;-73
2023/04/04 08:32:14;;;;;;;;;;;;;;;3.24;55.14;103192.28;5005186;28;19956;-73
2023/04/04 08:34:40;;;;;;;;;;;;;;;3.45;53.73;103186.56;5002631;28;20405;-74
2023/04/04 08:37:06;;;;;;;;;;;;;;;3.51;53.78;103191.19;5000684;28;19943;-74
2023/04/04 08:39:32;;;;;;;;;;;;;;;3.76;52.24;103184.94;4994940;28;19949;-75
2023/04/04 08:42:01;;;;;;;;;;;;;;;3.91;52.54;103179.81;4999356;28;20290;-75
2023/04/04 08:44:27;;;;;;;;;;;;;;;3.82;52.79;103175.50;5007453;28;19932;-74
2023/04/04 08:46:53;;;;;;;;;;;;;;;3.68;51.28;103184.94;5011183;28;19945;-74
2023/04/04 08:49:20;;;;;;;;;;;;;;;3.82;52.77;103175.50;5000872;28;19941;-74
2023/04/04 08:51:47;;;;;;;;;;;;;;;3.76;53.18;103176.16;4990272;28;20083;-73
2023/04/04 08:54:13;;;;;;;;;;;;;;;4.07;51.96;103174.53;5002942;28;19938;-75
2023/04/04 08:56:39;;;;;;;;;;;;;;;4.30;51.64;103173.81;5015793;28;19921;-72
2023/04/04 08:59:04;;;;;;;;;;;;;;;4.19;51.33;103171.50;4990705;28;19936;-75
2023/04/04 09:01:30;;;;;;;;;;;;;;;4.07;52.01;103169.22;4996441;28;20398;-74
2023/04/04 09:03:56;;;;;;;;;;;;;;;4.24;50.91;103172.66;5001630;28;20149;-73
2023/04/04 09:06:22;;;;;;;;;;;;;;;4.35;49.76;103174.16;4988904;28;19934;-73
2023/04/04 09:08:50;;;;;;;;;;;;;;;4.28;50.10;103175.84;5004707;28;20052;-73
2023/04/04 09:11:18;;;;;;;;;;;;;;;4.46;49.01;103176.44;4989495;28;20419;-74
2023/04/04 09:13:45;;;;;;;;;;;;;;;4.58;49.51;103172.44;4979186;28;19950;-74
2023/04/04 09:16:10;;;;;;;;;;;;;;;4.76;48.09;103171.41;4983231;28;19946;-73
2023/04/04 09:18:36;;;;;;;;;;;;;;;5.31;48.38;103170.47;4987872;28;19936;-75
2023/04/04 09:21:08;;;;;;;;;;;;;;;5.29;47.61;103162.69;4998583;28;20442;-76
2023/04/04 09:23:33;;;;;;;;;;;;;;;5.50;47.39;103161.22;4990716;28;19944;-73
2023/04/04 09:25:59;;;;;;;;;;;;;;;5.57;46.56;103173.63;4963418;28;19939;-73
2023/04/04 09:28:24;;;;;;;;;;;;;;;5.37;45.80;103177.75;5001780;28;20596;-74
2023/04/04 09:30:51;;;;;;;;;;;;;;;5.30;47.29;103166.16;5011065;28;20497;-73
2023/04/04 09:33:17;;;;;;;;;;;;;;;5.28;45.06;103160.16;5001866;28;20006;-73
2023/04/04 09:35:43;;;;;;;;;;;;;;;5.35;45.46;103161.97;4995518;28;19938;-74
2023/04/04 09:38:09;;;;;;;;;;;;;;;5.22;44.83;103158.25;5000556;28;19936;-75
2023/04/04 09:40:40;;;;;;;;;;;;;;;5.16;46.46;103165.91;5001157;28;20422;-73
2023/04/04 09:43:06;;;;;;;;;;;;;;;5.10;45.31;103155.16;5002936;28;19950;-73
2023/04/04 09:45:38;;;;;;;;;;;;;;;5.35;44.98;103147.84;5018242;28;20267;-73
2023/04/04 09:48:05;;;;;;;;;;;;;;;5.20;45.01;103151.25;5004588;28;20416;-74
2023/04/04 09:50:32;;;;;;;;;;;;;;;5.60;45.10;103144.00;4998287;28;20045;-73
2023/04/04 09:52:59;;;;;;;;;;;;;;;6.01;44.42;103131.22;4983479;28;19939;-72
2023/04/04 09:55:32;;;;;;;;;;;;;;;6.05;44.21;103129.06;5008423;28;19962;-74
2023/04/04 09:57:57;;;;;;;;;;;;;;;6.10;43.20;103139.97;4967979;28;21172;-74
2023/04/04 10:00:27;;;;;;;;;;;;;;;6.29;43.16;103128.78;4997376;28;20005;-72
2023/04/04 10:02:57;;;;;;;;;;;;;;;6.59;41.96;103135.97;5013513;28;20403;-74
2023/04/04 10:05:23;;;;;;;;;;;;;;;6.49;42.07;103129.06;4969327;28;20028;-74
2023/04/04 10:07:48;;;;;;;;;;;;;;;6.74;41.64;103134.94;4985545;28;19937;-73
2023/04/04 10:10:14;;;;;;;;;;;;;;;6.45;42.48;103124.31;4986540;28;20434;-72
2023/04/04 10:12:44;;;;;;;;;;;;;;;6.19;42.63;103130.06;5002721;28;19960;-75
2023/04/04 10:15:14;;;;;;;;;;;;;;;6.01;42.69;103125.09;4986325;28;20305;-73
2023/04/04 10:17:40;;;;;;;;;;;;;;;6.21;41.79;103122.72;5004170;28;19943;-72
2023/04/04 10:20:07;;;;;;;;;;;;;;;6.35;38.69;103121.09;5002814;28;19925;-71
2023/04/04 10:22:34;;;;;;;;;;;;;;;6.42;38.03;103104.19;4997085;28;19960;-74
2023/04/04 10:25:00;;;;;;;;;;;;;;;6.08;39.13;103123.34;5004832;28;20043;-73
2023/04/04 10:27:26;;;;;;;;;;;;;;;6.89;37.78;103108.28;5005935;28;20013;-73
2023/04/04 10:29:51;;;;;;;;;;;;;;;6.53;42.96;103110.91;5000912;28;21918;-72
2023/04/04 10:32:23;;;;;;;;;;;;;;;6.18;42.36;103107.97;5001842;28;19959;-73
2023/04/04 10:35:01;;;;;;;;;;;;;;;6.05;42.27;103110.44;5000669;28;19943;-73
2023/04/04 10:37:31;;;;;;;;;;;;;;;6.25;42.12;103108.06;4989117;28;19952;-72
2023/04/04 10:40:10;;;;;;;;;;;;;;;6.44;42.07;103112.84;5005741;28;20434;-73
2023/04/04 10:42:46;;;;;;;;;;;;;;;6.71;40.78;103116.69;4998601;28;19963;-74
2023/04/04 10:45:15;;;;;;;;;;;;;;;6.60;40.30;103111.81;5018322;28;19936;-72
2023/04/04 10:47:43;;;;;;;;;;;;;;;6.52;41.17;103098.59;4988150;28;21412;-73
2023/04/04 10:50:11;;;;;;;;;;;;;;;6.44;41.95;103099.53;4988803;28;19964;-73
2023/04/04 10:52:41;;;;;;;;;;;;;;;6.33;42.99;103105.31;4979476;28;20002;-73
2023/04/04 10:55:08;;;;;;;;;;;;;;;6.81;41.10;103103.06;4997444;28;20018;-73
2023/04/04 10:57:39;;;;;;;;;;;;;;;6.88;41.16;103098.63;5018271;28;19946;-73
2023/04/04 11:00:10;;;;;;;;;;;;;;;6.98;40.48;103093.03;5000153;28;19962;-73
2023/04/04 11:02:54;;;;;;;;;;;;;;;6.93;40.92;103095.41;5005804;28;20060;-73
2023/04/04 11:05:48;;;;;;;;;;;;;;;6.51;40.67;103091.63;4984020;28;19938;-75
2023/04/04 11:08:24;;;;;;;;;;;;;;;6.16;42.35;103093.19;5002724;28;19980;-73
2023/04/04 11:10:51;;;;;;;;;;;;;;;6.41;41.26;103093.75;4995630;28;20027;-73
2023/04/04 11:13:20;;;;;;;;;;;;;;;6.12;42.16;103092.72;5001671;28;19937;-73
2023/04/04 11:15:46;;;;;;;;;;;;;;;6.50;42.89;103089.97;5000417;28;19929;-73
2023/04/04 11:18:12;;;;;;;;;;;;;;;6.71;40.84;103083.91;5005743;28;19984;-71
2023/04/04 11:20:44;;;;;;;;;;;;;;;7.14;40.55;103076.78;4993479;28;20065;-73
2023/04/04 11:23:19;;;;;;;;;;;;;;;6.87;41.02;103065.03;5015848;28;19939;-76
2023/04/04 11:25:55;;;;;;;;;;;;;;;7.25;40.51;103078.97;5004274;28;19945;-74
2023/04/04 11:28:32;;;;;;;;;;;;;;;7.71;40.15;103067.84;5017864;28;20393;-74
2023/04/04 11:31:15;;;;;;;;;;;;;;;7.74;40.62;103064.00;4966759;28;20363;-75
2023/04/04 11:34:02;;;;;;;;;;;;;;;7.73;41.19;103065.84;5002823;28;20013;-73
2023/04/04 11:36:34;;;;;;;;;;;;;;;8.20;39.01;103054.44;4987884;28;19973;-74
2023/04/04 11:39:03;;;;;;;;;;;;;;;7.35;38.54;103055.47;5004178;28;19936;-73
2023/04/04 11:41:47;;;;;;;;;;;;;;;7.56;39.03;103051.13;4989890;28;20012;-74
2023/04/04 11:44:16;;;;;;;;;;;;;;;7.60;38.60;103050.56;4989806;28;19961;-72
2023/04/04 11:46:42;;;;;;;;;;;;;;;7.65;39.72;103047.28;5020169;28;19933;-73
2023/04/04 11:49:09;;;;;;;;;;;;;;;7.71;37.91;103040.34;5000922;28;19933;-71
2023/04/04 11:51:35;;;;;;;;;;;;;;;7.60;38.22;103033.72;5022440;28;19999;-72
2023/04/04 11:54:01;;;;;;;;;;;;;;;7.58;38.54;103033.06;5006956;28;20771;-72
2023/04/04 11:56:26;;;;;;;;;;;;;;;7.73;37.85;103033.81;4997870;28;19942;-73
2023/04/04 11:58:52;;;;;;;;;;;;;;;7.58;37.26;103027.75;5003368;28;19936;-75
2023/04/04 12:01:19;;;;;;;;;;;;;;;7.89;37.44;103022.84;5001799;28;20327;-73
2023/04/04 12:03:45;;;;;;;;;;;;;;;7.82;38.31;103024.66;5002551;28;19940;-72
2023/04/04 12:06:11;;;;;;;;;;;;;;;8.40;37.78;103019.88;4987400;28;20380;-74
2023/04/04 12:08:38;;;;;;;;;;;;;;;8.27;37.50;103025.13;5022239;28;19947;-71
2023/04/04 12:11:08;;;;;;;;;;;;;;;8.35;36.60;103018.78;5021933;28;19956;-72
2023/04/04 12:13:33;;;;;;;;;;;;;;;8.45;39.92;103017.41;5001109;28;19987;-72
2023/04/04 12:15:59;;;;;;;;;;;;;;;8.68;37.80;103024.28;4988563;28;19941;-73
2023/04/04 12:18:25;;;;;;;;;;;;;;;8.55;36.22;103021.56;4998297;28;19938;-73
2023/04/04 12:20:50;;;;;;;;;;;;;;;9.69;34.70;103019.63;5006192;28;19967;-73
2023/04/04 12:23:16;;;;;;;;;;;;;;;9.55;35.32;103024.16;4997476;28;19941;-73
2023/04/04 12:25:43;;;;;;;;;;;;;;;8.54;35.39;103022.59;5005017;28;19995;-75
2023/04/04 12:28:10;;;;;;;;;;;;;;;8.71;35.57;103024.69;5004968;28;19971;-73
2023/04/04 12:30:39;;;;;;;;;;;;;;;8.73;36.36;103017.28;5000987;28;20368;-73
2023/04/04 12:33:05;;;;;;;;;;;;;;;8.68;38.38;103016.25;5001007;28;19984;-76
2023/04/04 12:35:30;;;;;;;;;;;;;;;8.85;37.13;103009.50;5001798;28;19975;-76
2023/04/04 12:37:59;;;;;;;;;;;;;;;8.46;36.35;103004.88;5000899;28;19992;-72
2023/04/04 12:40:28;;;;;;;;;;;;;;;8.54;36.14;103009.22;5001556;28;20097;-73
2023/04/04 12:42:54;;;;;;;;;;;;;;;9.21;37.19;102997.59;4985330;28;19941;-73